createdAt,value
2018-07-09T00:00:44.484Z,71.40
2018-07-09T00:03:13.660Z,72.20
2018-07-09T00:05:42.768Z,72.30
2018-07-09T00:08:11.970Z,72.60
2018-07-09T00:10:52.152Z,73.50
2018-07-09T00:13:20.739Z,73.50
2018-07-09T00:15:48.800Z,73.10
2018-07-09T00:18:16.838Z,73.80
2018-07-09T00:20:45.119Z,75.90
2018-07-09T00:23:13.384Z,77.00
2018-07-09T00:25:41.553Z,77.20
2018-07-09T00:28:09.600Z,77.50
2018-07-09T00:30:37.648Z,77.90
2018-07-09T00:33:06.073Z,78.00
2018-07-09T00:35:34.117Z,78.60
2018-07-09T00:38:02.157Z,78.90
2018-07-09T00:40:30.197Z,79.30
2018-07-09T00:42:58.228Z,80.70
2018-07-09T00:45:26.278Z,80.50
2018-07-09T00:47:54.792Z,81.10
2018-07-09T00:50:22.862Z,81.70
2018-07-09T00:52:51.192Z,82.70
2018-07-09T00:55:19.584Z,82.50
2018-07-09T00:57:47.612Z,82.60
2018-07-09T01:00:15.656Z,82.70
2018-07-09T01:02:43.703Z,83.40
2018-07-09T01:05:11.749Z,83.10
2018-07-09T01:07:39.789Z,83.80
2018-07-09T01:10:07.821Z,86.00
2018-07-09T01:12:35.887Z,88.20
2018-07-09T01:15:03.945Z,88.30
2018-07-09T01:17:31.993Z,89.00
2018-07-09T01:20:00.064Z,88.50
2018-07-09T01:22:28.108Z,87.90
2018-07-09T01:24:56.157Z,87.90
2018-07-09T01:27:24.208Z,88.10
2018-07-09T01:29:52.274Z,88.40
2018-07-09T01:32:20.337Z,90.00
2018-07-09T01:34:48.368Z,90.60
2018-07-09T01:37:16.467Z,90.70
2018-07-09T01:39:44.509Z,90.80
2018-07-09T01:42:12.597Z,91.00
2018-07-09T01:47:08.444Z,90.50
2018-07-09T01:49:36.485Z,90.40
2018-07-09T01:52:04.540Z,90.90
2018-07-09T01:54:32.581Z,90.90
2018-07-09T02:01:56.424Z,92.40
2018-07-09T02:04:24.471Z,92.80
2018-07-09T02:06:52.525Z,92.80
2018-07-09T02:09:20.556Z,92.80
2018-07-09T02:11:48.691Z,92.60
2018-07-09T02:14:16.716Z,91.60
2018-07-09T02:16:44.769Z,91.20
2018-07-09T02:19:12.810Z,90.90
2018-07-09T02:21:40.849Z,90.90
2018-07-09T02:24:08.881Z,90.90
2018-07-09T02:29:04.804Z,92.10
2018-07-09T02:31:32.851Z,92.90
2018-07-09T02:34:00.885Z,93.10
2018-07-09T02:36:28.932Z,93.40
2018-07-09T02:38:56.964Z,93.40
2018-07-09T02:41:25.021Z,93.60
2018-07-09T02:43:53.057Z,93.40
2018-07-09T02:46:21.102Z,93.00
2018-07-09T02:48:49.141Z,92.50
2018-07-09T02:51:17.188Z,92.30
2018-07-09T02:53:45.221Z,92.20
2018-07-09T02:56:13.260Z,92.40
2018-07-09T02:58:41.301Z,92.50
2018-07-09T03:01:09.445Z,92.90
2018-07-09T03:03:37.393Z,92.80
2018-07-09T03:06:05.452Z,93.00
2018-07-09T03:08:33.497Z,93.20
2018-07-09T03:11:01.541Z,93.20
2018-07-09T03:13:29.601Z,93.20
2018-07-09T03:15:57.642Z,93.30
2018-07-09T03:18:25.683Z,93.40
2018-07-09T03:20:53.793Z,93.50
2018-07-09T03:23:21.777Z,93.40
2018-07-09T03:25:49.804Z,93.50
2018-07-09T03:28:17.853Z,93.80
2018-07-09T03:30:45.890Z,94.10
2018-07-09T03:33:13.937Z,94.50
2018-07-09T03:35:41.973Z,94.60
2018-07-09T03:38:10.017Z,94.90
2018-07-09T03:40:38.065Z,94.40
2018-07-09T03:43:06.308Z,94.30
2018-07-09T03:45:34.348Z,94.50
2018-07-09T03:48:02.392Z,94.60
2018-07-09T03:50:30.426Z,94.70
2018-07-09T03:52:58.476Z,94.40
2018-07-09T03:55:26.512Z,94.40
2018-07-09T03:57:54.825Z,94.60
2018-07-09T04:00:22.869Z,94.60
2018-07-09T04:02:50.913Z,94.70
2018-07-09T04:05:18.953Z,94.70
2018-07-09T04:07:47.000Z,94.80
2018-07-09T04:10:15.064Z,94.90
2018-07-09T04:12:43.137Z,94.80
2018-07-09T04:15:11.210Z,95.00
2018-07-09T04:17:39.388Z,95.40
2018-07-09T04:20:07.455Z,95.70
2018-07-09T04:22:35.520Z,95.50
2018-07-09T04:25:03.584Z,95.90
2018-07-09T04:27:31.652Z,96.90
2018-07-09T04:29:59.696Z,96.70
2018-07-09T04:32:27.756Z,96.60
2018-07-09T04:34:55.809Z,96.80
2018-07-09T04:37:23.864Z,96.80
2018-07-09T04:39:51.920Z,97.00
2018-07-09T04:42:19.989Z,97.00
2018-07-09T04:44:48.049Z,96.70
2018-07-09T04:47:16.187Z,96.50
2018-07-09T04:49:44.228Z,96.50
2018-07-09T04:52:12.294Z,97.00
2018-07-09T04:54:40.377Z,96.80
2018-07-09T04:57:08.445Z,96.70
2018-07-09T04:59:36.624Z,96.70
2018-07-09T05:02:04.688Z,96.70
2018-07-09T05:04:32.745Z,96.50
2018-07-09T05:07:00.864Z,96.10
2018-07-09T05:09:28.896Z,95.80
2018-07-09T05:11:56.977Z,95.60
2018-07-09T05:14:25.040Z,95.70
2018-07-09T05:16:53.093Z,95.50
2018-07-09T05:19:21.152Z,95.50
2018-07-09T05:21:49.213Z,95.80
2018-07-09T05:24:17.284Z,95.70
2018-07-09T05:26:45.349Z,95.30
2018-07-09T05:29:13.409Z,95.30
2018-07-09T05:31:41.465Z,94.80
2018-07-09T05:34:09.533Z,94.40
2018-07-09T05:36:37.597Z,94.50
2018-07-09T05:39:06.040Z,94.80
2018-07-09T05:41:34.152Z,95.20
2018-07-09T05:44:02.761Z,94.10
2018-07-09T05:46:30.813Z,94.30
2018-07-09T05:49:00.981Z,94.20
2018-07-09T05:51:29.032Z,93.60
2018-07-09T05:53:57.102Z,93.40
2018-07-09T05:56:25.153Z,93.30
2018-07-09T05:58:53.248Z,92.90
2018-07-09T06:01:21.272Z,92.80
2018-07-09T06:03:49.340Z,93.10
2018-07-09T06:06:17.397Z,92.70
2018-07-09T06:08:45.865Z,91.90
2018-07-09T06:11:13.962Z,91.70
2018-07-09T06:13:42.060Z,91.20
2018-07-09T06:16:10.010Z,91.30
2018-07-09T06:18:38.072Z,88.10
2018-07-09T06:21:06.249Z,90.10
2018-07-09T06:23:34.292Z,89.40
2018-07-09T06:26:02.332Z,88.30
2018-07-09T06:28:30.376Z,84.00
2018-07-09T06:30:58.453Z,81.40
2018-07-09T06:33:26.520Z,76.50
2018-07-09T06:35:54.561Z,71.60
2018-07-09T06:38:22.776Z,68.40
2018-07-09T06:40:50.820Z,64.20
2018-07-09T06:43:18.890Z,61.50
2018-07-09T06:45:46.925Z,58.80
2018-07-09T06:48:15.003Z,56.00
2018-07-09T06:50:43.297Z,53.40
2018-07-09T06:53:11.344Z,49.50
2018-07-09T06:55:39.384Z,47.20
2018-07-09T06:58:07.424Z,46.50
2018-07-09T07:00:35.473Z,44.90
2018-07-09T07:03:03.513Z,45.10
2018-07-09T07:05:31.591Z,42.30
2018-07-09T07:08:00.039Z,42.20
2018-07-09T07:10:28.072Z,41.90
2018-07-09T07:12:56.125Z,42.40
2018-07-09T07:15:24.164Z,41.70
2018-07-09T07:17:53.013Z,41.30
2018-07-09T07:20:21.052Z,41.40
2018-07-09T07:22:49.088Z,41.50
2018-07-09T07:25:17.128Z,41.90
2018-07-09T07:27:45.169Z,42.00
2018-07-09T07:30:13.212Z,42.70
2018-07-09T07:32:41.293Z,43.30
2018-07-09T07:35:09.296Z,44.40
2018-07-09T07:37:37.340Z,44.80
2018-07-09T07:40:05.490Z,44.80
2018-07-09T07:42:33.524Z,46.10
2018-07-09T07:45:01.993Z,47.70
2018-07-09T07:47:30.477Z,48.10
2018-07-09T07:49:58.533Z,48.70
2018-07-09T07:52:26.568Z,49.10
2018-07-09T07:54:54.636Z,49.40
2018-07-09T07:57:22.681Z,48.60
2018-07-09T07:59:50.732Z,49.60
2018-07-09T08:02:18.780Z,50.60
2018-07-09T08:04:46.833Z,50.20
2018-07-09T08:07:14.880Z,50.70
2018-07-09T08:09:42.977Z,51.00
2018-07-09T08:13:00.552Z,51.10
2018-07-09T08:14:39.033Z,49.80
2018-07-09T08:17:07.073Z,50.40
2018-07-09T08:19:35.155Z,49.50
2018-07-09T08:22:03.192Z,48.40
2018-07-09T08:24:31.245Z,49.80
2018-07-09T08:26:59.320Z,47.80
2018-07-09T08:29:27.425Z,48.70
2018-07-09T08:31:55.424Z,48.30
2018-07-09T08:34:23.479Z,48.10
2018-07-09T08:36:51.552Z,48.20
2018-07-09T08:41:54.128Z,48.70
2018-07-09T08:44:22.192Z,48.90
2018-07-09T08:46:50.229Z,47.00
2018-07-09T08:49:18.289Z,48.60
2018-07-09T08:51:46.333Z,48.00
2018-07-09T08:54:14.409Z,48.20
2018-07-09T08:56:42.458Z,48.80
2018-07-09T08:59:10.513Z,49.00
2018-07-09T09:01:38.540Z,49.20
2018-07-09T09:04:06.745Z,47.50
2018-07-09T09:06:34.787Z,48.30
2018-07-09T09:09:03.668Z,47.80
2018-07-09T09:11:31.725Z,46.80
2018-07-09T09:13:59.816Z,47.00
2018-07-09T09:16:27.922Z,46.20
2018-07-09T09:18:55.929Z,47.20
2018-07-09T09:23:51.912Z,47.80
2018-07-09T09:26:19.933Z,47.30
2018-07-09T09:28:47.993Z,47.60
2018-07-09T09:31:16.069Z,47.80
2018-07-09T09:33:44.079Z,47.50
2018-07-09T09:36:12.133Z,47.40
2018-07-09T09:38:40.172Z,47.60
2018-07-09T09:41:08.221Z,47.80
2018-07-09T09:43:36.265Z,46.30
2018-07-09T09:46:04.325Z,46.90
2018-07-09T09:48:32.350Z,45.90
2018-07-09T09:51:00.392Z,45.70
2018-07-09T09:53:28.429Z,43.80
2018-07-09T09:55:56.476Z,44.40
2018-07-09T09:58:24.565Z,47.30
2018-07-09T10:00:52.897Z,45.50
2018-07-09T10:03:20.936Z,44.90
2018-07-09T10:05:49.368Z,44.50
2018-07-09T10:08:17.405Z,43.50
2018-07-09T10:10:45.641Z,44.60
2018-07-09T10:13:13.760Z,43.90
2018-07-09T10:15:41.809Z,43.90
2018-07-09T10:18:09.844Z,43.70
2018-07-09T10:20:37.892Z,43.40
2018-07-09T10:23:06.041Z,44.40
2018-07-09T10:25:33.989Z,44.60
2018-07-09T10:28:02.025Z,44.40
2018-07-09T10:30:30.166Z,44.40
2018-07-09T10:32:58.124Z,45.50
2018-07-09T10:35:26.388Z,43.40
2018-07-09T10:37:54.525Z,44.10
2018-07-09T10:40:22.761Z,43.90
2018-07-09T10:42:50.804Z,42.90
2018-07-09T10:45:18.849Z,42.10
2018-07-09T10:47:46.884Z,41.90
2018-07-09T10:50:14.932Z,42.60
2018-07-09T10:52:42.969Z,42.40
2018-07-09T10:55:11.044Z,41.50
2018-07-09T10:57:39.056Z,41.70
2018-07-09T11:00:07.113Z,40.10
2018-07-09T11:02:35.153Z,40.10
2018-07-09T11:05:03.217Z,41.20
2018-07-09T11:07:31.253Z,41.20
2018-07-09T11:09:59.448Z,40.10
2018-07-09T11:12:27.604Z,39.40
2018-07-09T11:14:55.672Z,38.90
2018-07-09T11:17:23.728Z,38.50
2018-07-09T11:19:51.776Z,38.60
2018-07-09T11:22:19.820Z,36.40
2018-07-09T11:24:47.868Z,38.40
2018-07-09T11:27:15.909Z,37.30
2018-07-09T11:29:43.964Z,36.40
2018-07-09T11:32:12.064Z,35.90
2018-07-09T11:34:40.121Z,33.60
2018-07-09T11:37:08.154Z,34.30
2018-07-09T11:39:36.196Z,34.70
2018-07-09T11:42:04.289Z,34.70
2018-07-09T11:44:32.282Z,35.30
2018-07-09T11:47:00.332Z,35.70
2018-07-09T11:49:28.515Z,34.70
2018-07-09T11:51:56.581Z,33.90
2018-07-09T11:54:24.617Z,32.60
2018-07-09T11:56:52.673Z,33.30
2018-07-09T11:59:20.716Z,33.50
2018-07-09T12:01:48.775Z,34.80
2018-07-09T12:04:16.807Z,31.70
2018-07-09T12:06:44.893Z,35.10
2018-07-09T12:09:12.989Z,34.70
2018-07-09T12:11:41.289Z,36.30
2018-07-09T12:14:09.375Z,33.70
2018-07-09T12:16:37.448Z,34.10
2018-07-09T12:19:05.488Z,34.50
2018-07-09T12:21:33.551Z,35.90
2018-07-09T12:24:01.578Z,34.10
2018-07-09T12:26:29.627Z,31.80
2018-07-09T12:28:57.673Z,32.80
2018-07-09T12:31:25.713Z,34.50
2018-07-09T12:33:53.757Z,35.20
2018-07-09T12:36:21.855Z,34.70
2018-07-09T12:38:49.856Z,34.40
2018-07-09T12:41:17.907Z,36.00
2018-07-09T12:43:45.976Z,36.90
2018-07-09T12:46:14.045Z,37.60
2018-07-09T12:48:42.060Z,36.90
2018-07-09T12:51:10.109Z,35.90
2018-07-09T12:53:38.144Z,35.60
2018-07-09T12:56:06.226Z,34.40
2018-07-09T12:58:34.272Z,35.60
2018-07-09T13:01:02.316Z,35.60
2018-07-09T13:03:30.365Z,34.80
2018-07-09T13:05:58.420Z,35.30
2018-07-09T13:08:26.453Z,35.30
2018-07-09T13:10:54.510Z,35.40
2018-07-09T13:13:22.556Z,35.10
2018-07-09T13:15:50.601Z,34.40
2018-07-09T13:18:18.645Z,34.10
2018-07-09T13:20:46.713Z,35.50
2018-07-09T13:23:14.760Z,37.50
2018-07-09T13:25:42.822Z,34.80
2018-07-09T13:28:10.871Z,36.20
2018-07-09T13:30:38.912Z,35.90
2018-07-09T13:33:06.952Z,35.80
2018-07-09T13:35:35.005Z,36.00
2018-07-09T13:38:03.107Z,37.90
2018-07-09T13:42:59.057Z,36.40
2018-07-09T13:45:27.515Z,36.50
2018-07-09T13:47:55.668Z,37.30
2018-07-09T13:50:23.749Z,39.40
2018-07-09T13:52:52.126Z,37.10
2018-07-09T13:55:20.165Z,37.30
2018-07-09T13:57:48.212Z,34.20
2018-07-09T14:00:16.252Z,35.90
2018-07-09T14:02:44.296Z,36.00
2018-07-09T14:05:12.348Z,36.80
2018-07-09T14:07:40.425Z,38.80
2018-07-09T14:10:08.472Z,39.10
2018-07-09T14:12:36.528Z,37.60
2018-07-09T14:15:04.657Z,38.00
2018-07-09T14:17:32.696Z,38.20
2018-07-09T14:20:53.264Z,38.30
2018-07-09T14:23:21.316Z,37.00
2018-07-09T14:25:49.357Z,37.90
2018-07-09T14:28:17.413Z,38.20
2018-07-09T14:33:13.389Z,41.30
2018-07-09T14:35:41.454Z,41.60
2018-07-09T14:38:09.499Z,41.10
2018-07-09T14:40:37.556Z,39.70
2018-07-09T14:43:05.598Z,40.80
2018-07-09T14:45:33.638Z,42.00
2018-07-09T14:48:01.708Z,42.70
2018-07-09T14:50:29.723Z,41.60
2018-07-09T14:52:57.780Z,41.30
2018-07-09T14:55:25.820Z,40.10
2018-07-09T14:57:53.888Z,42.30
2018-07-09T15:00:21.912Z,42.30
2018-07-09T15:02:49.993Z,40.00
2018-07-09T15:05:18.041Z,43.80
2018-07-09T15:07:46.080Z,42.00
2018-07-09T15:10:14.120Z,39.70
2018-07-09T15:12:42.173Z,42.50
2018-07-09T15:15:10.216Z,42.90
2018-07-09T15:17:38.273Z,39.80
2018-07-09T15:20:06.400Z,42.80
2018-07-09T15:22:34.429Z,43.20
2018-07-09T15:25:02.476Z,43.10
2018-07-09T15:27:30.613Z,44.50
2018-07-09T15:29:58.654Z,43.60
2018-07-09T15:32:28.975Z,43.70
2018-07-09T15:34:57.073Z,43.00
2018-07-09T15:37:25.222Z,42.30
2018-07-09T15:39:53.544Z,44.00
2018-07-09T15:42:21.602Z,41.70
2018-07-09T15:44:49.661Z,44.30
2018-07-09T15:47:17.705Z,43.20
2018-07-09T15:49:45.896Z,40.50
2018-07-09T15:52:14.284Z,43.70
2018-07-09T15:54:42.556Z,42.90
2018-07-09T15:57:10.605Z,44.50
2018-07-09T15:59:39.032Z,44.80
2018-07-09T16:02:07.060Z,42.90
2018-07-09T16:04:35.108Z,43.90
2018-07-09T16:07:03.168Z,45.90
2018-07-09T16:09:31.241Z,45.80
2018-07-09T16:11:59.320Z,46.30
2018-07-09T16:14:27.380Z,45.70
2018-07-09T16:16:55.448Z,47.20
2018-07-09T16:19:23.518Z,46.30
2018-07-09T16:21:51.596Z,46.70
2018-07-09T16:24:19.673Z,46.40
2018-07-09T16:26:47.725Z,46.40
2018-07-09T16:29:15.832Z,45.60
2018-07-09T16:31:43.896Z,47.00
2018-07-09T16:34:11.961Z,46.50
2018-07-09T16:36:40.049Z,45.80
2018-07-09T16:39:08.404Z,46.20
2018-07-09T16:41:36.589Z,47.20
2018-07-09T16:44:04.693Z,48.20
2018-07-09T16:46:32.832Z,48.20
2018-07-09T16:49:00.891Z,49.10
2018-07-09T16:51:28.933Z,49.10
2018-07-09T16:53:57.117Z,49.10
2018-07-09T16:56:25.180Z,49.50
2018-07-09T16:58:53.284Z,49.40
2018-07-09T17:01:21.357Z,49.20
2018-07-09T17:03:49.434Z,49.40
2018-07-09T17:06:17.500Z,50.60
2018-07-09T17:08:45.573Z,49.80
2018-07-09T17:11:13.640Z,51.20
2018-07-09T17:13:41.781Z,51.30
2018-07-09T17:16:09.809Z,50.70
2018-07-09T17:18:37.872Z,52.50
2018-07-09T17:21:06.092Z,52.60
2018-07-09T17:23:34.140Z,52.00
2018-07-09T17:26:02.204Z,51.60
2018-07-09T17:28:30.253Z,52.50
2018-07-09T17:30:58.313Z,52.50
2018-07-09T17:33:26.384Z,50.50
2018-07-09T17:35:54.417Z,50.70
2018-07-09T17:38:22.501Z,51.20
2018-07-09T17:40:50.553Z,51.60
2018-07-09T17:43:18.609Z,52.70
2018-07-09T17:45:46.637Z,51.50
2018-07-09T17:48:14.693Z,51.90
2018-07-09T17:50:42.737Z,53.50
2018-07-09T17:53:10.892Z,51.40
2018-07-09T17:55:38.936Z,52.10
2018-07-09T17:58:06.985Z,52.70
2018-07-09T18:00:35.044Z,52.80
2018-07-09T18:03:03.109Z,53.00
2018-07-09T18:05:31.251Z,53.70
2018-07-09T18:07:59.328Z,53.10
2018-07-09T18:10:27.378Z,51.40
2018-07-09T18:12:55.489Z,52.30
2018-07-09T18:15:23.553Z,53.50
2018-07-09T18:20:19.562Z,54.30
2018-07-09T18:22:47.616Z,55.30
2018-07-09T18:25:15.680Z,56.30
2018-07-09T18:27:43.744Z,55.70
2018-07-09T18:30:11.810Z,55.20
2018-07-09T18:32:39.952Z,56.40
2018-07-09T18:35:07.945Z,56.90
2018-07-09T18:37:36.009Z,56.50
2018-07-09T18:40:04.134Z,55.90
2018-07-09T18:42:32.289Z,55.90
2018-07-09T18:45:00.873Z,56.50
2018-07-09T18:47:28.933Z,56.40
2018-07-09T18:49:56.997Z,56.20
2018-07-09T18:52:25.140Z,56.40
2018-07-09T18:54:53.204Z,57.30
2018-07-09T18:57:21.277Z,57.50
2018-07-09T18:59:49.349Z,57.20
2018-07-09T19:02:17.408Z,57.40
2018-07-09T19:04:45.489Z,57.60
2018-07-09T19:07:26.289Z,57.50
2018-07-09T19:09:54.476Z,57.70
2018-07-09T19:12:22.785Z,58.10
2018-07-09T19:14:51.564Z,57.00
2018-07-09T19:17:59.081Z,56.10
2018-07-09T19:20:38.741Z,55.90
2018-07-09T19:23:06.924Z,57.20
2018-07-09T19:25:35.110Z,57.10
2018-07-09T19:28:02.989Z,56.80
2018-07-09T19:30:30.265Z,57.30
2018-07-09T19:32:57.397Z,58.20
2018-07-09T19:35:24.545Z,58.90
2018-07-09T19:37:52.036Z,57.80
2018-07-09T19:40:18.830Z,58.50
2018-07-09T19:42:45.980Z,58.70
2018-07-09T19:45:13.125Z,58.60
2018-07-09T19:47:40.301Z,58.50
2018-07-09T19:50:07.501Z,58.30
2018-07-09T19:52:34.632Z,58.20
2018-07-09T19:55:01.805Z,58.20
2018-07-09T19:57:28.957Z,57.70
2018-07-09T19:59:56.108Z,57.70
2018-07-09T20:02:23.255Z,57.30
2018-07-09T20:04:50.396Z,57.70
2018-07-09T20:07:17.537Z,59.20
2018-07-09T20:09:50.212Z,58.40
2018-07-09T20:12:22.729Z,58.70
2018-07-09T20:14:55.348Z,58.60
2018-07-09T20:17:27.633Z,59.30
2018-07-09T20:19:54.760Z,60.30
2018-07-09T20:22:21.892Z,59.70
2018-07-09T20:24:49.037Z,59.40
2018-07-09T20:27:16.205Z,59.00
2018-07-09T20:29:43.340Z,59.50
2018-07-09T20:32:10.472Z,59.60
2018-07-09T20:34:37.608Z,59.50
2018-07-09T20:37:04.740Z,60.00
2018-07-09T20:39:31.886Z,60.60
2018-07-09T20:41:59.020Z,61.20
2018-07-09T20:44:26.180Z,60.80
2018-07-09T20:46:53.292Z,60.90
2018-07-09T20:49:20.486Z,61.00
2018-07-09T20:51:47.617Z,61.00
2018-07-09T20:54:14.754Z,61.30
2018-07-09T20:56:41.893Z,61.30
2018-07-09T20:59:09.025Z,62.00
2018-07-09T21:01:36.181Z,61.90
2018-07-09T21:04:08.724Z,61.70
2018-07-09T21:06:35.869Z,61.90
2018-07-09T21:09:03.077Z,62.20
2018-07-09T21:11:30.217Z,62.80
2018-07-09T21:16:24.805Z,62.60
2018-07-09T21:18:51.893Z,62.90
2018-07-09T21:21:19.032Z,63.00
2018-07-09T21:23:46.165Z,62.90
2018-07-09T21:26:13.326Z,63.30
2018-07-09T21:28:40.483Z,62.80
2018-07-09T21:31:07.593Z,63.50
2018-07-09T21:33:34.724Z,63.40
2018-07-09T21:36:01.894Z,63.60
2018-07-09T21:38:29.029Z,64.10
2018-07-09T21:40:56.173Z,63.80
2018-07-09T21:43:23.737Z,65.10
2018-07-09T21:45:50.829Z,64.00
2018-07-09T21:48:29.775Z,64.90
2018-07-09T21:50:45.557Z,64.30
2018-07-09T21:53:12.767Z,64.40
2018-07-09T21:55:40.118Z,64.80
2018-07-09T21:58:07.377Z,66.80
2018-07-09T22:00:34.730Z,65.90
2018-07-09T22:03:02.018Z,66.50
2018-07-09T22:05:29.163Z,66.40
2018-07-09T22:07:56.444Z,65.70
2018-07-09T22:10:23.581Z,65.70
2018-07-09T22:12:50.713Z,65.70
2018-07-09T22:15:17.856Z,65.80
2018-07-09T22:17:44.993Z,65.80
2018-07-09T22:20:12.163Z,65.90
2018-07-09T22:22:39.292Z,66.00
2018-07-09T22:25:06.432Z,66.10
2018-07-09T22:27:33.569Z,66.00
2018-07-09T22:30:00.704Z,65.60
2018-07-09T22:32:28.758Z,66.20
2018-07-09T22:34:56.809Z,66.20
2018-07-09T22:37:24.856Z,66.40
2018-07-09T22:39:52.913Z,66.60
2018-07-09T22:42:20.959Z,66.90
2018-07-09T22:44:48.990Z,67.00
2018-07-09T22:47:17.036Z,67.10
2018-07-09T22:49:45.184Z,67.20
2018-07-09T22:52:13.377Z,67.30
2018-07-09T22:54:41.412Z,67.70
2018-07-09T22:57:09.647Z,67.90
2018-07-09T22:59:38.029Z,68.60
2018-07-09T23:02:06.219Z,68.40
2018-07-09T23:04:34.265Z,68.70
2018-07-09T23:07:02.309Z,68.80
2018-07-09T23:10:07.949Z,69.10
2018-07-09T23:12:49.349Z,70.10
2018-07-09T23:15:30.257Z,70.40
2018-07-09T23:18:10.102Z,70.50
2018-07-09T23:20:49.841Z,70.00
2018-07-09T23:23:16.973Z,70.50
2018-07-09T23:25:44.113Z,71.50
2018-07-09T23:28:11.244Z,72.10
2018-07-09T23:30:38.402Z,71.90
2018-07-09T23:33:05.528Z,71.90
2018-07-09T23:35:32.665Z,71.70
2018-07-09T23:37:59.810Z,72.30
2018-07-09T23:40:26.948Z,73.30
2018-07-09T23:42:54.089Z,73.30
2018-07-09T23:45:21.221Z,74.10
2018-07-09T23:47:48.369Z,73.90
2018-07-09T23:50:15.508Z,72.10
2018-07-09T23:52:42.648Z,73.30
2018-07-09T23:55:09.784Z,72.90
2018-07-09T23:58:22.297Z,72.60
